Time,TemperatureF,DewpointF,PressureIn,WindDirection,WindDirectionDegrees,WindSpeedMPH,WindSpeedGustMPH,Humidity,HourlyPrecipIn,Conditions,Clouds,dailyrainin,SoftwareType,DateUTC
2013-03-23 00:12:00,32.3,21.0,29.87,SSE,164,0.0,1.0,63,0.00,,,0.00,weatherlink.com 1.10,2013-03-23 05:12:00,
2013-03-23 00:27:00,32.2,21.0,29.88,SSE,164,0.0,0.0,64,0.00,,,0.00,weatherlink.com 1.10,2013-03-23 05:27:00,
2013-03-23 00:42:00,32.0,21.0,29.89,SSE,164,0.0,0.0,64,0.00,,,0.00,weatherlink.com 1.10,2013-03-23 05:42:00,
2013-03-23 00:57:00,31.9,21.0,29.90,SSE,164,0.0,0.0,65,0.00,,,0.00,weatherlink.com 1.10,2013-03-23 05:57:00,
2013-03-23 01:12:00,31.9,21.0,29.89,SSE,164,0.0,0.0,65,0.00,,,0.00,weatherlink.com 1.10,2013-03-23 06:12:00,
2013-03-23 01:27:00,32.0,21.0,29.89,SSE,164,0.0,1.0,65,0.00,,,0.00,weatherlink.com 1.10,2013-03-23 06:27:00,
2013-03-23 01:42:00,31.9,22.0,29.90,SSE,164,0.0,0.0,66,0.00,,,0.00,weatherlink.com 1.10,2013-03-23 06:42:00,
2013-03-23 01:57:00,31.8,22.0,29.89,SSE,164,0.0,1.0,67,0.00,,,0.00,weatherlink.com 1.10,2013-03-23 06:57:00,
2013-03-23 02:12:00,31.5,22.0,29.90,ENE,57,0.0,0.0,69,0.00,,,0.00,weatherlink.com 1.10,2013-03-23 07:12:00,
2013-03-23 02:27:00,31.4,23.0,29.91,ENE,57,0.0,0.0,71,0.00,,,0.00,weatherlink.com 1.10,2013-03-23 07:27:00,
2013-03-23 02:42:00,31.3,24.0,29.92,ENE,57,0.0,1.0,73,0.00,,,0.00,weatherlink.com 1.10,2013-03-23 07:42:00,
2013-03-23 02:57:00,31.3,24.0,29.91,ENE,57,0.0,2.0,74,0.00,,,0.00,weatherlink.com 1.10,2013-03-23 07:57:00,
2013-03-23 03:13:00,31.2,24.0,29.90,ESE,109,0.0,3.0,75,0.00,,,0.00,weatherlink.com 1.10,2013-03-23 08:13:00,
2013-03-23 03:27:00,31.0,24.0,29.90,ESE,109,0.0,1.0,75,0.00,,,0.00,weatherlink.com 1.10,2013-03-23 08:27:00,
2013-03-23 03:43:00,30.9,24.0,29.89,ESE,109,0.0,0.0,76,0.00,,,0.00,weatherlink.com 1.10,2013-03-23 08:43:00,
2013-03-23 03:57:00,30.8,24.0,29.88,East,96,2.0,5.0,76,0.00,,,0.00,weatherlink.com 1.10,2013-03-23 08:57:00,
2013-03-23 04:12:00,30.7,24.0,29.87,ESE,117,0.0,2.0,76,0.00,,,0.00,weatherlink.com 1.10,2013-03-23 09:12:00,
2013-03-23 04:27:00,30.7,24.0,29.88,SE,129,0.0,1.0,77,0.00,,,0.00,weatherlink.com 1.10,2013-03-23 09:27:00,
2013-03-23 04:42:00,30.6,24.0,29.89,SE,131,0.0,4.0,77,0.00,,,0.00,weatherlink.com 1.10,2013-03-23 09:42:00,
2013-03-23 04:57:00,30.6,25.0,29.90,SE,131,0.0,2.0,78,0.00,,,0.00,weatherlink.com 1.10,2013-03-23 09:57:00,
2013-03-23 05:12:00,30.5,24.0,29.90,SE,131,0.0,2.0,78,0.00,,,0.00,weatherlink.com 1.10,2013-03-23 10:12:00,
2013-03-23 05:27:00,30.5,25.0,29.91,SE,131,0.0,0.0,79,0.00,,,0.00,weatherlink.com 1.10,2013-03-23 10:27:00,
2013-03-23 05:43:00,30.3,25.0,29.91,SE,131,0.0,0.0,80,0.00,,,0.00,weatherlink.com 1.10,2013-03-23 10:43:00,
2013-03-23 05:58:00,30.3,25.0,29.91,SE,131,0.0,0.0,80,0.00,,,0.00,weatherlink.com 1.10,2013-03-23 10:58:00,
2013-03-23 06:13:00,30.2,25.0,29.92,SE,131,0.0,1.0,80,0.00,,,0.00,weatherlink.com 1.10,2013-03-23 11:13:00,
2013-03-23 06:28:00,30.2,25.0,29.92,SE,131,0.0,0.0,81,0.00,,,0.00,weatherlink.com 1.10,2013-03-23 11:28:00,
2013-03-23 06:43:00,30.1,25.0,29.92,SE,131,0.0,0.0,81,0.00,,,0.00,weatherlink.com 1.10,2013-03-23 11:43:00,
2013-03-23 06:58:00,30.1,25.0,29.92,SE,131,0.0,1.0,81,0.00,,,0.00,weatherlink.com 1.10,2013-03-23 11:58:00,
2013-03-23 07:13:00,30.1,25.0,29.93,SE,131,0.0,2.0,82,0.00,,,0.00,weatherlink.com 1.10,2013-03-23 12:13:00,
2013-03-23 07:28:00,30.0,25.0,29.92,SE,130,0.0,3.0,82,0.00,,,0.00,weatherlink.com 1.10,2013-03-23 12:28:00,
2013-03-23 07:43:00,29.9,25.0,29.92,SE,130,0.0,1.0,82,0.00,,,0.00,weatherlink.com 1.10,2013-03-23 12:43:00,
2013-03-23 07:58:00,30.0,25.0,29.92,ESE,117,0.0,2.0,82,0.00,,,0.00,weatherlink.com 1.10,2013-03-23 12:58:00,
2013-03-23 08:13:00,30.1,26.0,29.93,ESE,113,0.0,1.0,83,0.00,,,0.00,weatherlink.com 1.10,2013-03-23 13:13:00,
2013-03-23 08:28:00,30.1,25.0,29.92,SE,132,0.0,4.0,82,0.00,,,0.00,weatherlink.com 1.10,2013-03-23 13:28:00,
2013-03-23 08:43:00,30.3,25.0,29.93,SE,131,0.0,3.0,82,0.00,,,0.00,weatherlink.com 1.10,2013-03-23 13:43:00,
2013-03-23 08:58:00,30.8,26.0,29.93,SE,126,0.0,1.0,82,0.00,,,0.00,weatherlink.com 1.10,2013-03-23 13:58:00,
2013-03-23 09:13:00,31.1,26.0,29.93,SE,126,0.0,3.0,80,0.00,,,0.00,weatherlink.com 1.10,2013-03-23 14:13:00,
2013-03-23 09:28:00,31.8,26.0,29.94,ESE,111,0.0,3.0,79,0.00,,,0.00,weatherlink.com 1.10,2013-03-23 14:28:00,
2013-03-23 09:43:00,32.5,26.0,29.95,ESE,111,0.0,1.0,77,0.00,,,0.00,weatherlink.com 1.10,2013-03-23 14:43:00,
2013-03-23 09:58:00,32.8,26.0,29.96,NNE,23,0.0,2.0,75,0.00,,,0.00,weatherlink.com 1.10,2013-03-23 14:58:00,
2013-03-23 10:13:00,32.9,26.0,29.95,ESE,105,0.0,3.0,75,0.00,,,0.00,weatherlink.com 1.10,2013-03-23 15:13:00,
2013-03-23 10:28:00,33.4,26.0,29.96,NW,317,0.0,2.0,73,0.00,,,0.00,weatherlink.com 1.10,2013-03-23 15:28:00,
2013-03-23 10:43:00,33.8,26.0,29.96,East,83,0.0,3.0,73,0.00,,,0.00,weatherlink.com 1.10,2013-03-23 15:43:00,
2013-03-23 10:58:00,34.2,26.0,29.96,ENE,65,0.0,4.0,72,0.00,,,0.00,weatherlink.com 1.10,2013-03-23 15:58:00,
2013-03-23 11:13:00,34.9,26.0,29.96,ESE,112,5.0,7.0,69,0.00,,,0.00,weatherlink.com 1.10,2013-03-23 16:13:00,
2013-03-23 11:28:00,35.1,26.0,29.95,NNW,340,0.0,6.0,69,0.00,,,0.00,weatherlink.com 1.10,2013-03-23 16:28:00,
2013-03-23 11:43:00,35.9,26.0,29.95,NE,51,2.0,6.0,67,0.00,,,0.00,weatherlink.com 1.10,2013-03-23 16:43:00,
2013-03-23 11:58:00,36.9,26.0,29.95,East,94,0.0,4.0,65,0.00,,,0.00,weatherlink.com 1.10,2013-03-23 16:58:00,
2013-03-23 12:13:00,36.8,26.0,29.94,SE,132,0.0,3.0,64,0.00,,,0.00,weatherlink.com 1.10,2013-03-23 17:13:00,
2013-03-23 12:28:00,37.2,26.0,29.93,East,98,5.0,9.0,63,0.00,,,0.00,weatherlink.com 1.10,2013-03-23 17:28:00,
2013-03-23 12:43:00,37.2,25.0,29.92,NNE,21,2.0,5.0,61,0.00,,,0.00,weatherlink.com 1.10,2013-03-23 17:43:00,
2013-03-23 12:58:00,37.8,25.0,29.92,South,179,1.0,5.0,61,0.00,,,0.00,weatherlink.com 1.10,2013-03-23 17:58:00,
2013-03-23 13:13:00,37.6,24.0,29.91,East,99,0.0,8.0,58,0.00,,,0.00,weatherlink.com 1.10,2013-03-23 18:13:00,
2013-03-23 13:28:00,37.5,24.0,29.91,East,84,2.0,7.0,59,0.00,,,0.00,weatherlink.com 1.10,2013-03-23 18:28:00,
2013-03-23 13:43:00,37.5,23.0,29.90,East,86,1.0,7.0,57,0.00,,,0.00,weatherlink.com 1.10,2013-03-23 18:43:00,
2013-03-23 13:58:00,37.5,24.0,29.90,East,82,0.0,7.0,59,0.00,,,0.00,weatherlink.com 1.10,2013-03-23 18:58:00,
2013-03-23 14:13:00,37.5,25.0,29.89,ENE,64,0.0,6.0,60,0.00,,,0.00,weatherlink.com 1.10,2013-03-23 19:13:00,
2013-03-23 14:28:00,37.2,25.0,29.88,SE,140,0.0,5.0,62,0.00,,,0.00,weatherlink.com 1.10,2013-03-23 19:28:00,
2013-03-23 14:43:00,37.2,26.0,29.88,ESE,103,0.0,7.0,64,0.00,,,0.00,weatherlink.com 1.10,2013-03-23 19:43:00,
2013-03-23 14:58:00,37.0,26.0,29.88,SE,138,4.0,8.0,65,0.00,,,0.00,weatherlink.com 1.10,2013-03-23 19:58:00,
2013-03-23 15:13:00,36.0,26.0,29.88,NNW,335,0.0,6.0,68,0.00,,,0.00,weatherlink.com 1.10,2013-03-23 20:13:00,
2013-03-23 15:29:00,35.4,27.0,29.88,ENE,64,0.0,5.0,71,0.00,,,0.00,weatherlink.com 1.10,2013-03-23 20:29:00,
2013-03-23 15:44:00,35.4,28.0,29.88,East,89,1.0,6.0,74,0.00,,,0.00,weatherlink.com 1.10,2013-03-23 20:44:00,
2013-03-23 15:59:00,34.5,28.0,29.88,ENE,59,0.0,10.0,78,0.00,,,0.00,weatherlink.com 1.10,2013-03-23 20:59:00,
2013-03-23 16:14:00,33.4,29.0,29.88,NE,47,0.0,5.0,82,0.00,,,0.00,weatherlink.com 1.10,2013-03-23 21:14:00,
2013-03-23 16:29:00,32.7,28.0,29.89,North,360,1.0,6.0,84,0.00,,,0.00,weatherlink.com 1.10,2013-03-23 21:29:00,
2013-03-23 16:44:00,32.3,29.0,29.89,NE,37,0.0,2.0,87,0.00,,,0.00,weatherlink.com 1.10,2013-03-23 21:44:00,
2013-03-23 16:59:00,31.9,29.0,29.89,ESE,104,0.0,4.0,88,0.01,,,0.01,weatherlink.com 1.10,2013-03-23 21:59:00,
2013-03-23 17:14:00,31.8,29.0,29.89,ENE,76,0.0,5.0,88,0.01,,,0.01,weatherlink.com 1.10,2013-03-23 22:14:00,
2013-03-23 17:29:00,31.7,29.0,29.89,NE,44,0.0,4.0,88,0.02,,,0.02,weatherlink.com 1.10,2013-03-23 22:29:00,
2013-03-23 17:59:00,31.4,29.0,29.89,NNE,23,1.0,3.0,89,0.01,,,0.02,weatherlink.com 1.10,2013-03-23 22:59:00,
2013-03-23 18:14:00,31.1,28.0,29.90,NNE,33,0.0,5.0,89,0.01,,,0.02,weatherlink.com 1.10,2013-03-23 23:14:00,
2013-03-23 18:29:00,30.7,28.0,29.90,NNE,33,0.0,7.0,89,0.00,,,0.02,weatherlink.com 1.10,2013-03-23 23:29:00,
2013-03-23 18:44:00,30.5,28.0,29.91,NNE,33,0.0,2.0,90,0.00,,,0.02,weatherlink.com 1.10,2013-03-23 23:44:00,
2013-03-23 18:59:00,30.4,28.0,29.91,NNE,33,0.0,5.0,91,0.00,,,0.02,weatherlink.com 1.10,2013-03-23 23:59:00,
2013-03-23 19:14:00,29.9,28.0,29.91,NNE,33,0.0,5.0,91,0.00,,,0.02,weatherlink.com 1.10,2013-03-24 00:14:00,
2013-03-23 19:29:00,29.7,27.0,29.92,NNE,33,0.0,4.0,91,0.00,,,0.02,weatherlink.com 1.10,2013-03-24 00:29:00,
2013-03-23 19:44:00,29.4,27.0,29.93,NNE,33,0.0,4.0,91,0.00,,,0.02,weatherlink.com 1.10,2013-03-24 00:44:00,
2013-03-23 19:59:00,29.1,27.0,29.93,NNE,33,0.0,6.0,91,0.00,,,0.02,weatherlink.com 1.10,2013-03-24 00:59:00,
2013-03-23 20:14:00,28.9,27.0,29.94,NNE,33,0.0,4.0,91,0.00,,,0.02,weatherlink.com 1.10,2013-03-24 01:14:00,
2013-03-23 20:59:00,28.7,26.0,29.93,NNE,33,0.0,4.0,91,0.00,,,0.02,weatherlink.com 1.10,2013-03-24 01:59:00,
2013-03-23 21:14:00,28.7,26.0,29.93,NNE,33,0.0,3.0,91,0.00,,,0.02,weatherlink.com 1.10,2013-03-24 02:14:00,
2013-03-23 21:29:00,28.6,26.0,29.92,NNE,33,0.0,3.0,91,0.00,,,0.02,weatherlink.com 1.10,2013-03-24 02:29:00,
2013-03-23 21:44:00,28.6,26.0,29.91,NNE,33,0.0,3.0,91,0.00,,,0.02,weatherlink.com 1.10,2013-03-24 02:44:00,
2013-03-23 21:59:00,28.6,26.0,29.92,NNE,33,0.0,3.0,91,0.00,,,0.02,weatherlink.com 1.10,2013-03-24 02:59:00,
2013-03-23 22:14:00,28.6,27.0,29.92,NNE,33,0.0,4.0,92,0.00,,,0.02,weatherlink.com 1.10,2013-03-24 03:14:00,
2013-03-23 22:29:00,28.5,27.0,29.93,NNE,33,1.0,4.0,92,0.00,,,0.02,weatherlink.com 1.10,2013-03-24 03:29:00,
2013-03-23 22:44:00,28.3,26.0,29.93,NNE,33,1.0,4.0,92,0.00,,,0.02,weatherlink.com 1.10,2013-03-24 03:44:00,
2013-03-23 23:14:00,28.2,26.0,29.91,NNE,33,0.0,3.0,91,0.00,,,0.02,weatherlink.com 1.10,2013-03-24 04:14:00,
2013-03-23 23:29:00,28.4,26.0,29.91,NNE,33,0.0,4.0,91,0.00,,,0.02,weatherlink.com 1.10,2013-03-24 04:29:00,
2013-03-23 23:44:00,28.4,26.0,29.92,NNE,33,0.0,5.0,90,0.00,,,0.02,weatherlink.com 1.10,2013-03-24 04:44:00,
2013-03-23 23:59:00,28.5,26.0,29.93,NNE,33,0.0,5.0,90,0.00,,,0.02,weatherlink.com 1.10,2013-03-24 04:59:00,